sensor_id;sensor_type;location;lat;lon;timestamp;P1;durP1;ratioP1;P2;durP2;ratioP2
47381;SDS011;33128;51.580;5.170;2023-04-07T00:00:55;40.22;;;37.05;;
47381;SDS011;33128;51.580;5.170;2023-04-07T00:03:21;25.27;;;23.05;;
47381;SDS011;33128;51.580;5.170;2023-04-07T00:05:47;30.90;;;28.67;;
47381;SDS011;33128;51.580;5.170;2023-04-07T00:08:13;22.75;;;20.77;;
47381;SDS011;33128;51.580;5.170;2023-04-07T00:10:38;22.65;;;20.88;;
47381;SDS011;33128;51.580;5.170;2023-04-07T00:13:04;17.00;;;15.95;;
47381;SDS011;33128;51.580;5.170;2023-04-07T00:15:29;17.52;;;16.42;;
47381;SDS011;33128;51.580;5.170;2023-04-07T00:17:55;19.13;;;17.58;;
47381;SDS011;33128;51.580;5.170;2023-04-07T00:20:21;18.02;;;16.83;;
47381;SDS011;33128;51.580;5.170;2023-04-07T00:22:47;22.40;;;20.77;;
47381;SDS011;33128;51.580;5.170;2023-04-07T00:25:13;26.50;;;24.38;;
47381;SDS011;33128;51.580;5.170;2023-04-07T00:27:38;25.75;;;23.33;;
47381;SDS011;33128;51.580;5.170;2023-04-07T00:30:04;24.83;;;22.05;;
47381;SDS011;33128;51.580;5.170;2023-04-07T00:32:31;19.67;;;18.17;;
47381;SDS011;33128;51.580;5.170;2023-04-07T00:34:56;37.28;;;33.90;;
47381;SDS011;33128;51.580;5.170;2023-04-07T00:37:22;20.05;;;18.73;;
47381;SDS011;33128;51.580;5.170;2023-04-07T00:39:49;22.05;;;20.15;;
47381;SDS011;33128;51.580;5.170;2023-04-07T00:42:15;22.27;;;20.25;;
47381;SDS011;33128;51.580;5.170;2023-04-07T00:44:41;18.52;;;17.20;;
47381;SDS011;33128;51.580;5.170;2023-04-07T00:47:07;20.52;;;18.63;;
47381;SDS011;33128;51.580;5.170;2023-04-07T00:49:32;19.08;;;18.10;;
47381;SDS011;33128;51.580;5.170;2023-04-07T00:51:58;28.23;;;25.75;;
47381;SDS011;33128;51.580;5.170;2023-04-07T00:54:24;20.00;;;18.63;;
47381;SDS011;33128;51.580;5.170;2023-04-07T00:56:54;20.98;;;19.27;;
47381;SDS011;33128;51.580;5.170;2023-04-07T00:59:21;18.30;;;17.10;;
47381;SDS011;33128;51.580;5.170;2023-04-07T01:05:05;19.25;;;17.70;;
47381;SDS011;33128;51.580;5.170;2023-04-07T01:07:17;17.70;;;16.52;;
47381;SDS011;33128;51.580;5.170;2023-04-07T01:10:08;20.58;;;18.88;;
47381;SDS011;33128;51.580;5.170;2023-04-07T01:15:16;20.33;;;19.00;;
47381;SDS011;33128;51.580;5.170;2023-04-07T01:17:47;33.40;;;30.42;;
47381;SDS011;33128;51.580;5.170;2023-04-07T01:20:20;19.58;;;18.30;;
47381;SDS011;33128;51.580;5.170;2023-04-07T01:22:52;37.42;;;33.70;;
47381;SDS011;33128;51.580;5.170;2023-04-07T01:30:54;20.83;;;19.20;;
47381;SDS011;33128;51.580;5.170;2023-04-07T01:33:22;25.55;;;22.88;;
47381;SDS011;33128;51.580;5.170;2023-04-07T01:35:49;20.02;;;18.35;;
47381;SDS011;33128;51.580;5.170;2023-04-07T01:38:16;17.92;;;16.90;;
47381;SDS011;33128;51.580;5.170;2023-04-07T01:40:43;20.50;;;19.02;;
47381;SDS011;33128;51.580;5.170;2023-04-07T01:43:11;21.48;;;19.70;;
47381;SDS011;33128;51.580;5.170;2023-04-07T01:45:37;28.65;;;26.17;;
47381;SDS011;33128;51.580;5.170;2023-04-07T01:48:05;19.75;;;18.63;;
47381;SDS011;33128;51.580;5.170;2023-04-07T01:50:31;19.33;;;18.17;;
47381;SDS011;33128;51.580;5.170;2023-04-07T01:52:58;20.45;;;19.10;;
47381;SDS011;33128;51.580;5.170;2023-04-07T01:55:24;19.58;;;18.10;;
47381;SDS011;33128;51.580;5.170;2023-04-07T01:57:53;28.25;;;25.33;;
47381;SDS011;33128;51.580;5.170;2023-04-07T02:00:18;26.85;;;24.25;;
47381;SDS011;33128;51.580;5.170;2023-04-07T02:02:44;19.17;;;17.70;;
47381;SDS011;33128;51.580;5.170;2023-04-07T02:05:12;18.95;;;17.75;;
47381;SDS011;33128;51.580;5.170;2023-04-07T02:07:45;17.55;;;16.55;;
47381;SDS011;33128;51.580;5.170;2023-04-07T02:10:20;25.58;;;23.45;;
47381;SDS011;33128;51.580;5.170;2023-04-07T02:12:48;19.77;;;18.48;;
47381;SDS011;33128;51.580;5.170;2023-04-07T02:15:14;18.75;;;17.75;;
47381;SDS011;33128;51.580;5.170;2023-04-07T02:17:41;20.52;;;19.00;;
47381;SDS011;33128;51.580;5.170;2023-04-07T02:20:10;20.35;;;18.65;;
47381;SDS011;33128;51.580;5.170;2023-04-07T02:22:39;34.53;;;31.23;;
47381;SDS011;33128;51.580;5.170;2023-04-07T02:25:30;18.70;;;17.60;;
47381;SDS011;33128;51.580;5.170;2023-04-07T02:27:56;21.90;;;19.55;;
47381;SDS011;33128;51.580;5.170;2023-04-07T02:30:22;17.35;;;16.52;;
47381;SDS011;33128;51.580;5.170;2023-04-07T02:32:49;18.90;;;17.65;;
47381;SDS011;33128;51.580;5.170;2023-04-07T02:35:15;23.00;;;21.42;;
47381;SDS011;33128;51.580;5.170;2023-04-07T02:37:41;18.13;;;17.13;;
47381;SDS011;33128;51.580;5.170;2023-04-07T02:40:07;33.13;;;30.23;;
47381;SDS011;33128;51.580;5.170;2023-04-07T02:42:33;25.63;;;23.52;;
47381;SDS011;33128;51.580;5.170;2023-04-07T02:45:00;20.50;;;17.92;;
47381;SDS011;33128;51.580;5.170;2023-04-07T02:47:30;20.90;;;19.58;;
47381;SDS011;33128;51.580;5.170;2023-04-07T02:49:59;20.27;;;18.67;;
47381;SDS011;33128;51.580;5.170;2023-04-07T02:52:25;27.00;;;24.65;;
47381;SDS011;33128;51.580;5.170;2023-04-07T02:54:50;36.85;;;33.50;;
47381;SDS011;33128;51.580;5.170;2023-04-07T02:57:16;19.42;;;17.67;;
47381;SDS011;33128;51.580;5.170;2023-04-07T02:59:42;19.08;;;17.40;;
47381;SDS011;33128;51.580;5.170;2023-04-07T03:02:07;18.98;;;17.90;;
47381;SDS011;33128;51.580;5.170;2023-04-07T03:04:33;19.25;;;17.92;;
47381;SDS011;33128;51.580;5.170;2023-04-07T03:06:59;19.95;;;18.45;;
47381;SDS011;33128;51.580;5.170;2023-04-07T03:09:25;17.88;;;16.85;;
47381;SDS011;33128;51.580;5.170;2023-04-07T03:11:51;18.90;;;17.83;;
47381;SDS011;33128;51.580;5.170;2023-04-07T03:14:17;19.38;;;18.30;;
47381;SDS011;33128;51.580;5.170;2023-04-07T03:16:43;20.60;;;19.00;;
47381;SDS011;33128;51.580;5.170;2023-04-07T03:19:11;18.77;;;17.50;;
47381;SDS011;33128;51.580;5.170;2023-04-07T03:21:37;24.02;;;20.77;;
47381;SDS011;33128;51.580;5.170;2023-04-07T03:24:03;19.58;;;17.77;;
47381;SDS011;33128;51.580;5.170;2023-04-07T03:26:30;17.70;;;16.65;;
47381;SDS011;33128;51.580;5.170;2023-04-07T03:28:56;18.35;;;16.92;;
47381;SDS011;33128;51.580;5.170;2023-04-07T03:31:21;18.42;;;17.33;;
47381;SDS011;33128;51.580;5.170;2023-04-07T03:33:48;18.73;;;17.63;;
47381;SDS011;33128;51.580;5.170;2023-04-07T03:36:14;17.75;;;16.05;;
47381;SDS011;33128;51.580;5.170;2023-04-07T03:38:40;22.98;;;21.23;;
47381;SDS011;33128;51.580;5.170;2023-04-07T03:41:05;17.70;;;16.65;;
47381;SDS011;33128;51.580;5.170;2023-04-07T03:43:31;17.77;;;16.58;;
47381;SDS011;33128;51.580;5.170;2023-04-07T03:45:56;17.95;;;16.40;;
47381;SDS011;33128;51.580;5.170;2023-04-07T03:48:22;17.27;;;16.00;;
47381;SDS011;33128;51.580;5.170;2023-04-07T03:50:48;18.77;;;17.25;;
47381;SDS011;33128;51.580;5.170;2023-04-07T03:53:13;18.15;;;17.08;;
47381;SDS011;33128;51.580;5.170;2023-04-07T03:55:40;23.50;;;21.77;;
47381;SDS011;33128;51.580;5.170;2023-04-07T03:58:07;17.98;;;16.50;;
47381;SDS011;33128;51.580;5.170;2023-04-07T04:00:33;17.67;;;16.60;;
47381;SDS011;33128;51.580;5.170;2023-04-07T04:02:59;19.67;;;17.63;;
47381;SDS011;33128;51.580;5.170;2023-04-07T04:05:25;19.35;;;17.80;;
47381;SDS011;33128;51.580;5.170;2023-04-07T04:07:51;17.33;;;16.38;;
47381;SDS011;33128;51.580;5.170;2023-04-07T04:10:19;17.42;;;16.17;;
47381;SDS011;33128;51.580;5.170;2023-04-07T04:12:46;30.58;;;27.48;;
47381;SDS011;33128;51.580;5.170;2023-04-07T04:15:12;16.48;;;15.68;;
47381;SDS011;33128;51.580;5.170;2023-04-07T04:17:38;17.98;;;16.63;;
47381;SDS011;33128;51.580;5.170;2023-04-07T04:20:05;18.23;;;16.65;;
47381;SDS011;33128;51.580;5.170;2023-04-07T04:22:31;22.27;;;20.05;;
47381;SDS011;33128;51.580;5.170;2023-04-07T04:24:57;24.95;;;19.98;;
47381;SDS011;33128;51.580;5.170;2023-04-07T04:27:23;17.83;;;16.00;;
47381;SDS011;33128;51.580;5.170;2023-04-07T04:29:49;17.88;;;16.77;;
47381;SDS011;33128;51.580;5.170;2023-04-07T04:32:15;16.65;;;15.65;;
47381;SDS011;33128;51.580;5.170;2023-04-07T04:34:48;21.33;;;19.35;;
47381;SDS011;33128;51.580;5.170;2023-04-07T04:37:13;17.58;;;16.25;;
47381;SDS011;33128;51.580;5.170;2023-04-07T04:39:39;16.30;;;15.27;;
47381;SDS011;33128;51.580;5.170;2023-04-07T04:42:05;29.23;;;26.85;;
47381;SDS011;33128;51.580;5.170;2023-04-07T04:44:31;18.08;;;16.15;;
47381;SDS011;33128;51.580;5.170;2023-04-07T04:46:59;17.52;;;16.38;;
47381;SDS011;33128;51.580;5.170;2023-04-07T04:49:24;18.58;;;16.38;;
47381;SDS011;33128;51.580;5.170;2023-04-07T04:51:50;26.77;;;24.65;;
47381;SDS011;33128;51.580;5.170;2023-04-07T04:54:17;28.17;;;24.17;;
47381;SDS011;33128;51.580;5.170;2023-04-07T04:56:43;18.85;;;17.65;;
47381;SDS011;33128;51.580;5.170;2023-04-07T04:59:09;29.88;;;26.83;;
47381;SDS011;33128;51.580;5.170;2023-04-07T05:01:34;18.98;;;17.55;;
47381;SDS011;33128;51.580;5.170;2023-04-07T05:04:00;18.52;;;16.98;;
47381;SDS011;33128;51.580;5.170;2023-04-07T05:06:26;17.17;;;16.27;;
47381;SDS011;33128;51.580;5.170;2023-04-07T05:08:52;37.05;;;33.40;;
47381;SDS011;33128;51.580;5.170;2023-04-07T05:11:18;19.13;;;16.63;;
47381;SDS011;33128;51.580;5.170;2023-04-07T05:13:43;17.63;;;16.52;;
47381;SDS011;33128;51.580;5.170;2023-04-07T05:16:09;17.45;;;16.10;;
47381;SDS011;33128;51.580;5.170;2023-04-07T05:18:34;15.57;;;14.30;;
47381;SDS011;33128;51.580;5.170;2023-04-07T05:21:00;17.00;;;16.13;;
47381;SDS011;33128;51.580;5.170;2023-04-07T05:23:26;17.02;;;15.75;;
47381;SDS011;33128;51.580;5.170;2023-04-07T05:25:51;15.40;;;14.70;;
47381;SDS011;33128;51.580;5.170;2023-04-07T05:28:17;20.33;;;18.83;;
47381;SDS011;33128;51.580;5.170;2023-04-07T05:30:43;12.00;;;10.90;;
47381;SDS011;33128;51.580;5.170;2023-04-07T05:33:09;11.43;;;10.82;;
47381;SDS011;33128;51.580;5.170;2023-04-07T05:35:35;10.50;;;9.73;;
47381;SDS011;33128;51.580;5.170;2023-04-07T05:38:03;10.10;;;9.60;;
47381;SDS011;33128;51.580;5.170;2023-04-07T05:40:29;11.23;;;10.48;;
47381;SDS011;33128;51.580;5.170;2023-04-07T05:42:55;15.68;;;10.05;;
47381;SDS011;33128;51.580;5.170;2023-04-07T05:45:20;24.00;;;10.02;;
47381;SDS011;33128;51.580;5.170;2023-04-07T05:47:47;10.52;;;9.57;;
47381;SDS011;33128;51.580;5.170;2023-04-07T05:50:15;9.48;;;8.88;;
47381;SDS011;33128;51.580;5.170;2023-04-07T05:52:41;9.88;;;9.27;;
47381;SDS011;33128;51.580;5.170;2023-04-07T05:55:07;9.85;;;9.35;;
47381;SDS011;33128;51.580;5.170;2023-04-07T05:57:32;8.90;;;8.50;;
47381;SDS011;33128;51.580;5.170;2023-04-07T05:59:58;8.65;;;8.35;;
47381;SDS011;33128;51.580;5.170;2023-04-07T06:02:24;8.48;;;8.00;;
47381;SDS011;33128;51.580;5.170;2023-04-07T06:04:50;8.25;;;7.75;;
47381;SDS011;33128;51.580;5.170;2023-04-07T06:07:15;10.48;;;8.20;;
47381;SDS011;33128;51.580;5.170;2023-04-07T06:09:41;8.00;;;7.60;;
47381;SDS011;33128;51.580;5.170;2023-04-07T06:12:07;8.18;;;7.88;;
47381;SDS011;33128;51.580;5.170;2023-04-07T06:14:33;10.80;;;9.60;;
47381;SDS011;33128;51.580;5.170;2023-04-07T06:16:59;8.05;;;7.75;;
47381;SDS011;33128;51.580;5.170;2023-04-07T06:19:25;7.28;;;6.97;;
47381;SDS011;33128;51.580;5.170;2023-04-07T06:21:54;8.10;;;7.78;;
47381;SDS011;33128;51.580;5.170;2023-04-07T06:24:19;13.38;;;7.75;;
47381;SDS011;33128;51.580;5.170;2023-04-07T06:26:47;8.07;;;7.68;;
47381;SDS011;33128;51.580;5.170;2023-04-07T06:29:12;7.63;;;7.32;;
47381;SDS011;33128;51.580;5.170;2023-04-07T06:31:38;8.07;;;7.68;;
47381;SDS011;33128;51.580;5.170;2023-04-07T06:34:07;7.78;;;7.47;;
47381;SDS011;33128;51.580;5.170;2023-04-07T06:36:33;8.32;;;7.60;;
47381;SDS011;33128;51.580;5.170;2023-04-07T06:38:58;8.20;;;7.90;;
47381;SDS011;33128;51.580;5.170;2023-04-07T06:41:24;7.88;;;7.57;;
47381;SDS011;33128;51.580;5.170;2023-04-07T06:43:50;7.43;;;7.13;;
47381;SDS011;33128;51.580;5.170;2023-04-07T06:46:16;7.45;;;7.10;;
47381;SDS011;33128;51.580;5.170;2023-04-07T06:48:42;7.63;;;7.22;;
47381;SDS011;33128;51.580;5.170;2023-04-07T06:51:08;7.68;;;7.20;;
47381;SDS011;33128;51.580;5.170;2023-04-07T06:53:33;7.68;;;7.35;;
47381;SDS011;33128;51.580;5.170;2023-04-07T06:56:05;7.45;;;7.15;;
47381;SDS011;33128;51.580;5.170;2023-04-07T06:58:34;7.63;;;6.90;;
47381;SDS011;33128;51.580;5.170;2023-04-07T07:01:01;8.10;;;7.57;;
47381;SDS011;33128;51.580;5.170;2023-04-07T07:03:27;7.78;;;7.10;;
47381;SDS011;33128;51.580;5.170;2023-04-07T07:05:57;7.80;;;7.50;;
47381;SDS011;33128;51.580;5.170;2023-04-07T07:08:23;8.00;;;7.70;;
47381;SDS011;33128;51.580;5.170;2023-04-07T07:10:50;10.68;;;7.97;;
47381;SDS011;33128;51.580;5.170;2023-04-07T07:13:17;8.52;;;8.10;;
47381;SDS011;33128;51.580;5.170;2023-04-07T07:15:43;8.00;;;7.70;;
47381;SDS011;33128;51.580;5.170;2023-04-07T07:18:10;8.32;;;7.85;;
47381;SDS011;33128;51.580;5.170;2023-04-07T07:20:36;8.13;;;7.07;;
47381;SDS011;33128;51.580;5.170;2023-04-07T07:23:01;8.02;;;7.38;;
47381;SDS011;33128;51.580;5.170;2023-04-07T07:25:27;6.95;;;6.70;;
47381;SDS011;33128;51.580;5.170;2023-04-07T07:27:53;7.38;;;7.07;;
47381;SDS011;33128;51.580;5.170;2023-04-07T07:30:21;8.13;;;7.72;;
47381;SDS011;33128;51.580;5.170;2023-04-07T07:32:48;8.98;;;8.48;;
47381;SDS011;33128;51.580;5.170;2023-04-07T07:35:14;7.60;;;7.20;;
47381;SDS011;33128;51.580;5.170;2023-04-07T07:37:40;8.00;;;7.40;;
47381;SDS011;33128;51.580;5.170;2023-04-07T07:40:06;7.60;;;7.30;;
47381;SDS011;33128;51.580;5.170;2023-04-07T07:42:32;9.27;;;8.38;;
47381;SDS011;33128;51.580;5.170;2023-04-07T07:44:57;8.48;;;7.80;;
47381;SDS011;33128;51.580;5.170;2023-04-07T07:47:23;7.57;;;7.18;;
47381;SDS011;33128;51.580;5.170;2023-04-07T07:49:49;7.45;;;7.15;;
47381;SDS011;33128;51.580;5.170;2023-04-07T07:52:15;7.25;;;6.97;;
47381;SDS011;33128;51.580;5.170;2023-04-07T07:54:40;7.50;;;7.20;;
47381;SDS011;33128;51.580;5.170;2023-04-07T07:57:06;7.20;;;6.90;;
47381;SDS011;33128;51.580;5.170;2023-04-07T07:59:32;8.68;;;8.02;;
47381;SDS011;33128;51.580;5.170;2023-04-07T08:01:58;8.10;;;7.70;;
47381;SDS011;33128;51.580;5.170;2023-04-07T08:04:24;8.00;;;7.70;;
47381;SDS011;33128;51.580;5.170;2023-04-07T08:06:50;7.65;;;7.35;;
47381;SDS011;33128;51.580;5.170;2023-04-07T08:09:17;7.38;;;7.07;;
47381;SDS011;33128;51.580;5.170;2023-04-07T08:11:43;7.32;;;7.03;;
47381;SDS011;33128;51.580;5.170;2023-04-07T08:14:12;7.57;;;7.28;;
47381;SDS011;33128;51.580;5.170;2023-04-07T08:16:38;7.97;;;7.63;;
47381;SDS011;33128;51.580;5.170;2023-04-07T08:19:04;7.65;;;7.25;;
47381;SDS011;33128;51.580;5.170;2023-04-07T08:21:30;7.88;;;7.57;;
47381;SDS011;33128;51.580;5.170;2023-04-07T08:23:55;6.75;;;6.55;;
47381;SDS011;33128;51.580;5.170;2023-04-07T08:26:21;7.28;;;6.72;;
47381;SDS011;33128;51.580;5.170;2023-04-07T08:28:50;7.90;;;6.85;;
47381;SDS011;33128;51.580;5.170;2023-04-07T08:31:16;6.70;;;6.40;;
47381;SDS011;33128;51.580;5.170;2023-04-07T08:33:42;7.13;;;6.80;;
47381;SDS011;33128;51.580;5.170;2023-04-07T08:36:08;6.85;;;6.53;;
47381;SDS011;33128;51.580;5.170;2023-04-07T08:38:33;7.00;;;6.70;;
47381;SDS011;33128;51.580;5.170;2023-04-07T08:41:03;6.82;;;6.45;;
47381;SDS011;33128;51.580;5.170;2023-04-07T08:43:37;6.90;;;6.60;;
47381;SDS011;33128;51.580;5.170;2023-04-07T08:46:04;6.35;;;6.15;;
47381;SDS011;33128;51.580;5.170;2023-04-07T08:48:33;6.28;;;6.07;;
47381;SDS011;33128;51.580;5.170;2023-04-07T08:51:03;6.70;;;6.40;;
47381;SDS011;33128;51.580;5.170;2023-04-07T08:53:44;6.85;;;6.47;;
47381;SDS011;33128;51.580;5.170;2023-04-07T08:56:14;7.50;;;7.10;;
47381;SDS011;33128;51.580;5.170;2023-04-07T08:58:45;6.68;;;6.47;;
47381;SDS011;33128;51.580;5.170;2023-04-07T09:01:12;7.10;;;6.70;;
47381;SDS011;33128;51.580;5.170;2023-04-07T09:03:38;7.20;;;6.90;;
47381;SDS011;33128;51.580;5.170;2023-04-07T09:06:04;6.97;;;6.65;;
47381;SDS011;33128;51.580;5.170;2023-04-07T09:08:30;7.47;;;6.88;;
47381;SDS011;33128;51.580;5.170;2023-04-07T09:10:56;6.97;;;6.68;;
47381;SDS011;33128;51.580;5.170;2023-04-07T09:13:25;7.53;;;7.03;;
47381;SDS011;33128;51.580;5.170;2023-04-07T09:15:50;7.18;;;6.88;;
47381;SDS011;33128;51.580;5.170;2023-04-07T09:18:16;6.80;;;6.50;;
47381;SDS011;33128;51.580;5.170;2023-04-07T09:20:55;7.20;;;6.60;;
47381;SDS011;33128;51.580;5.170;2023-04-07T09:23:35;6.27;;;6.03;;
47381;SDS011;33128;51.580;5.170;2023-04-07T09:28:44;6.70;;;6.25;;
47381;SDS011;33128;51.580;5.170;2023-04-07T09:31:11;6.70;;;6.40;;
47381;SDS011;33128;51.580;5.170;2023-04-07T09:33:38;6.70;;;6.10;;
47381;SDS011;33128;51.580;5.170;2023-04-07T09:36:04;6.00;;;5.80;;
47381;SDS011;33128;51.580;5.170;2023-04-07T09:38:39;6.07;;;5.88;;
47381;SDS011;33128;51.580;5.170;2023-04-07T09:41:10;6.05;;;5.85;;
47381;SDS011;33128;51.580;5.170;2023-04-07T09:43:38;6.50;;;6.10;;
47381;SDS011;33128;51.580;5.170;2023-04-07T09:46:15;7.35;;;6.68;;
47381;SDS011;33128;51.580;5.170;2023-04-07T09:48:43;6.53;;;6.32;;
47381;SDS011;33128;51.580;5.170;2023-04-07T09:51:10;6.40;;;6.10;;
47381;SDS011;33128;51.580;5.170;2023-04-07T09:56:06;7.03;;;6.38;;
47381;SDS011;33128;51.580;5.170;2023-04-07T09:58:38;6.82;;;6.35;;
47381;SDS011;33128;51.580;5.170;2023-04-07T10:01:07;6.55;;;6.25;;
47381;SDS011;33128;51.580;5.170;2023-04-07T10:03:35;6.20;;;6.00;;
47381;SDS011;33128;51.580;5.170;2023-04-07T10:06:01;6.07;;;5.88;;
47381;SDS011;33128;51.580;5.170;2023-04-07T10:08:28;6.63;;;6.32;;
47381;SDS011;33128;51.580;5.170;2023-04-07T10:10:57;5.70;;;5.50;;
47381;SDS011;33128;51.580;5.170;2023-04-07T10:13:27;6.30;;;6.10;;
47381;SDS011;33128;51.580;5.170;2023-04-07T10:15:57;6.55;;;6.15;;
47381;SDS011;33128;51.580;5.170;2023-04-07T10:18:27;6.53;;;5.90;;
47381;SDS011;33128;51.580;5.170;2023-04-07T10:20:55;6.38;;;5.88;;
47381;SDS011;33128;51.580;5.170;2023-04-07T10:23:25;9.23;;;6.10;;
47381;SDS011;33128;51.580;5.170;2023-04-07T10:26:11;6.45;;;6.07;;
47381;SDS011;33128;51.580;5.170;2023-04-07T10:28:42;6.10;;;5.90;;
47381;SDS011;33128;51.580;5.170;2023-04-07T10:31:10;6.65;;;6.25;;
47381;SDS011;33128;51.580;5.170;2023-04-07T10:36:09;6.63;;;6.18;;
47381;SDS011;33128;51.580;5.170;2023-04-07T10:38:35;6.35;;;6.10;;
47381;SDS011;33128;51.580;5.170;2023-04-07T10:41:09;5.97;;;5.78;;
47381;SDS011;33128;51.580;5.170;2023-04-07T10:44:05;6.38;;;6.13;;
47381;SDS011;33128;51.580;5.170;2023-04-07T10:49:10;7.03;;;6.40;;
47381;SDS011;33128;51.580;5.170;2023-04-07T10:51:37;7.20;;;6.70;;
47381;SDS011;33128;51.580;5.170;2023-04-07T10:54:18;6.50;;;6.30;;
47381;SDS011;33128;51.580;5.170;2023-04-07T10:59:30;6.50;;;6.28;;
47381;SDS011;33128;51.580;5.170;2023-04-07T11:04:44;6.65;;;6.25;;
47381;SDS011;33128;51.580;5.170;2023-04-07T11:07:11;6.70;;;6.30;;
47381;SDS011;33128;51.580;5.170;2023-04-07T11:09:41;6.20;;;6.00;;
47381;SDS011;33128;51.580;5.170;2023-04-07T11:12:07;7.38;;;6.80;;
47381;SDS011;33128;51.580;5.170;2023-04-07T11:14:34;6.50;;;6.30;;
47381;SDS011;33128;51.580;5.170;2023-04-07T11:17:02;6.90;;;6.20;;
47381;SDS011;33128;51.580;5.170;2023-04-07T11:19:28;6.60;;;6.28;;
47381;SDS011;33128;51.580;5.170;2023-04-07T11:22:12;6.68;;;6.22;;
47381;SDS011;33128;51.580;5.170;2023-04-07T11:24:41;6.75;;;6.45;;
47381;SDS011;33128;51.580;5.170;2023-04-07T11:27:13;6.18;;;5.97;;
47381;SDS011;33128;51.580;5.170;2023-04-07T11:29:41;7.07;;;6.55;;
47381;SDS011;33128;51.580;5.170;2023-04-07T11:32:08;6.30;;;6.00;;
47381;SDS011;33128;51.580;5.170;2023-04-07T11:34:34;7.00;;;6.55;;
47381;SDS011;33128;51.580;5.170;2023-04-07T11:37:22;6.72;;;6.20;;
47381;SDS011;33128;51.580;5.170;2023-04-07T11:42:32;6.70;;;6.50;;
47381;SDS011;33128;51.580;5.170;2023-04-07T11:44:58;6.60;;;6.40;;
47381;SDS011;33128;51.580;5.170;2023-04-07T11:47:35;6.50;;;6.00;;
47381;SDS011;33128;51.580;5.170;2023-04-07T11:50:05;6.78;;;6.30;;
47381;SDS011;33128;51.580;5.170;2023-04-07T11:52:44;6.07;;;5.88;;
47381;SDS011;33128;51.580;5.170;2023-04-07T11:55:20;5.97;;;5.70;;
47381;SDS011;33128;51.580;5.170;2023-04-07T11:57:48;5.78;;;5.57;;
47381;SDS011;33128;51.580;5.170;2023-04-07T12:00:15;6.18;;;5.75;;
47381;SDS011;33128;51.580;5.170;2023-04-07T12:02:42;5.90;;;5.70;;
47381;SDS011;33128;51.580;5.170;2023-04-07T12:05:08;5.60;;;5.40;;
47381;SDS011;33128;51.580;5.170;2023-04-07T12:07:34;5.80;;;5.60;;
47381;SDS011;33128;51.580;5.170;2023-04-07T12:10:17;5.40;;;5.20;;
47381;SDS011;33128;51.580;5.170;2023-04-07T12:12:44;6.00;;;5.72;;
47381;SDS011;33128;51.580;5.170;2023-04-07T12:15:11;6.07;;;5.80;;
47381;SDS011;33128;51.580;5.170;2023-04-07T12:17:37;5.78;;;5.57;;
47381;SDS011;33128;51.580;5.170;2023-04-07T12:20:08;6.32;;;6.00;;
47381;SDS011;33128;51.580;5.170;2023-04-07T12:22:35;5.88;;;5.68;;
47381;SDS011;33128;51.580;5.170;2023-04-07T12:25:02;6.18;;;5.70;;
47381;SDS011;33128;51.580;5.170;2023-04-07T12:27:28;6.50;;;6.22;;
47381;SDS011;33128;51.580;5.170;2023-04-07T12:29:53;6.53;;;6.22;;
47381;SDS011;33128;51.580;5.170;2023-04-07T12:32:19;6.25;;;6.00;;
47381;SDS011;33128;51.580;5.170;2023-04-07T12:34:45;6.28;;;5.90;;
47381;SDS011;33128;51.580;5.170;2023-04-07T12:37:11;6.38;;;6.18;;
47381;SDS011;33128;51.580;5.170;2023-04-07T12:39:37;6.70;;;6.30;;
47381;SDS011;33128;51.580;5.170;2023-04-07T12:42:03;11.73;;;6.13;;
47381;SDS011;33128;51.580;5.170;2023-04-07T12:44:29;6.43;;;5.90;;
47381;SDS011;33128;51.580;5.170;2023-04-07T12:46:55;5.95;;;5.75;;
47381;SDS011;33128;51.580;5.170;2023-04-07T12:49:21;6.20;;;6.00;;
47381;SDS011;33128;51.580;5.170;2023-04-07T12:51:46;6.72;;;6.20;;
47381;SDS011;33128;51.580;5.170;2023-04-07T12:54:12;8.23;;;6.20;;
47381;SDS011;33128;51.580;5.170;2023-04-07T12:56:39;9.75;;;6.38;;
47381;SDS011;33128;51.580;5.170;2023-04-07T12:59:06;6.50;;;6.18;;
47381;SDS011;33128;51.580;5.170;2023-04-07T13:01:32;6.25;;;6.05;;
47381;SDS011;33128;51.580;5.170;2023-04-07T13:03:59;5.70;;;5.50;;
47381;SDS011;33128;51.580;5.170;2023-04-07T13:06:25;5.90;;;5.40;;
47381;SDS011;33128;51.580;5.170;2023-04-07T13:08:51;5.93;;;5.60;;
47381;SDS011;33128;51.580;5.170;2023-04-07T13:11:17;6.20;;;6.00;;
47381;SDS011;33128;51.580;5.170;2023-04-07T13:13:42;5.80;;;5.60;;
47381;SDS011;33128;51.580;5.170;2023-04-07T13:16:08;5.68;;;5.20;;
47381;SDS011;33128;51.580;5.170;2023-04-07T13:18:34;5.95;;;5.57;;
47381;SDS011;33128;51.580;5.170;2023-04-07T13:21:00;6.22;;;5.90;;
47381;SDS011;33128;51.580;5.170;2023-04-07T13:23:32;6.30;;;5.90;;
47381;SDS011;33128;51.580;5.170;2023-04-07T13:25:58;6.00;;;5.65;;
47381;SDS011;33128;51.580;5.170;2023-04-07T13:28:23;6.10;;;5.80;;
47381;SDS011;33128;51.580;5.170;2023-04-07T13:30:49;6.05;;;5.82;;
47381;SDS011;33128;51.580;5.170;2023-04-07T13:33:15;6.40;;;6.03;;
47381;SDS011;33128;51.580;5.170;2023-04-07T13:35:43;6.60;;;6.30;;
47381;SDS011;33128;51.580;5.170;2023-04-07T13:38:08;6.20;;;5.85;;
47381;SDS011;33128;51.580;5.170;2023-04-07T13:40:34;6.72;;;6.22;;
47381;SDS011;33128;51.580;5.170;2023-04-07T13:43:00;6.50;;;6.20;;
47381;SDS011;33128;51.580;5.170;2023-04-07T13:45:26;5.97;;;5.68;;
47381;SDS011;33128;51.580;5.170;2023-04-07T13:47:51;11.25;;;6.07;;
47381;SDS011;33128;51.580;5.170;2023-04-07T13:50:17;11.48;;;6.05;;
47381;SDS011;33128;51.580;5.170;2023-04-07T13:52:42;6.10;;;5.80;;
47381;SDS011;33128;51.580;5.170;2023-04-07T13:55:08;5.82;;;5.63;;
47381;SDS011;33128;51.580;5.170;2023-04-07T13:57:34;5.78;;;5.57;;
47381;SDS011;33128;51.580;5.170;2023-04-07T13:59:59;5.95;;;5.65;;
47381;SDS011;33128;51.580;5.170;2023-04-07T14:02:25;8.32;;;5.90;;
47381;SDS011;33128;51.580;5.170;2023-04-07T14:04:56;5.95;;;5.65;;
47381;SDS011;33128;51.580;5.170;2023-04-07T14:07:27;6.18;;;5.88;;
47381;SDS011;33128;51.580;5.170;2023-04-07T14:09:56;6.15;;;5.85;;
47381;SDS011;33128;51.580;5.170;2023-04-07T14:12:22;6.50;;;6.00;;
47381;SDS011;33128;51.580;5.170;2023-04-07T14:14:48;6.13;;;5.93;;
47381;SDS011;33128;51.580;5.170;2023-04-07T14:17:16;5.90;;;5.60;;
47381;SDS011;33128;51.580;5.170;2023-04-07T14:19:42;5.53;;;5.22;;
47381;SDS011;33128;51.580;5.170;2023-04-07T14:22:08;6.07;;;5.57;;
47381;SDS011;33128;51.580;5.170;2023-04-07T14:24:34;6.20;;;5.70;;
47381;SDS011;33128;51.580;5.170;2023-04-07T14:27:00;6.18;;;5.50;;
47381;SDS011;33128;51.580;5.170;2023-04-07T14:29:27;5.93;;;5.63;;
47381;SDS011;33128;51.580;5.170;2023-04-07T14:31:53;5.45;;;5.20;;
47381;SDS011;33128;51.580;5.170;2023-04-07T14:34:19;5.78;;;5.40;;
47381;SDS011;33128;51.580;5.170;2023-04-07T14:36:54;5.75;;;5.55;;
47381;SDS011;33128;51.580;5.170;2023-04-07T14:39:21;6.50;;;6.07;;
47381;SDS011;33128;51.580;5.170;2023-04-07T14:41:47;5.00;;;4.88;;
47381;SDS011;33128;51.580;5.170;2023-04-07T14:44:13;5.40;;;5.20;;
47381;SDS011;33128;51.580;5.170;2023-04-07T14:46:39;5.50;;;5.20;;
47381;SDS011;33128;51.580;5.170;2023-04-07T14:49:06;5.53;;;5.18;;
47381;SDS011;33128;51.580;5.170;2023-04-07T14:51:32;5.68;;;5.32;;
47381;SDS011;33128;51.580;5.170;2023-04-07T14:53:58;5.45;;;5.15;;
47381;SDS011;33128;51.580;5.170;2023-04-07T14:56:24;5.55;;;5.32;;
47381;SDS011;33128;51.580;5.170;2023-04-07T14:58:49;6.10;;;5.57;;
47381;SDS011;33128;51.580;5.170;2023-04-07T15:01:15;5.70;;;5.45;;
47381;SDS011;33128;51.580;5.170;2023-04-07T15:03:41;5.65;;;5.45;;
47381;SDS011;33128;51.580;5.170;2023-04-07T15:06:08;5.57;;;5.28;;
47381;SDS011;33128;51.580;5.170;2023-04-07T15:08:35;5.80;;;5.40;;